createdAt,value
2023-06-05T00:27:42.502Z,44.9
2023-06-05T00:47:44.500Z,47.8
2023-06-05T01:07:42.663Z,50.1
2023-06-05T01:27:42.589Z,51.1
2023-06-05T01:47:42.636Z,52.9
2023-06-05T02:07:42.625Z,54.1
2023-06-05T02:27:42.744Z,56
2023-06-05T02:47:42.749Z,55.9
2023-06-05T03:07:42.768Z,58.3
2023-06-05T03:27:42.796Z,59.1
2023-06-05T03:47:42.829Z,59.8
2023-06-05T04:07:42.751Z,60.1
2023-06-05T04:27:42.904Z,62.3
2023-06-05T04:47:42.933Z,62.4
2023-06-05T05:07:42.962Z,63.1
2023-06-05T05:27:43.167Z,60.8
2023-06-05T05:47:42.993Z,59.2
2023-06-05T06:07:43.034Z,57.6
2023-06-05T06:27:43.089Z,53.3
2023-06-05T06:47:47.446Z,44.8
2023-06-05T07:07:43.203Z,42.1
2023-06-05T07:27:43.153Z,40.5
2023-06-05T07:47:43.160Z,34.7
2023-06-05T08:07:43.187Z,34.5
2023-06-05T08:27:43.470Z,31.7
2023-06-05T08:47:43.350Z,31
2023-06-05T09:07:43.172Z,30.6
2023-06-05T09:27:43.302Z,29.5
2023-06-05T09:47:53.516Z,29.7
2023-06-05T10:07:43.358Z,35
2023-06-05T10:27:43.450Z,29.1
2023-06-05T10:47:43.550Z,28.5
2023-06-05T11:07:43.389Z,27.9
2023-06-05T11:27:43.493Z,27.3
2023-06-05T11:47:43.592Z,29.3
2023-06-05T12:07:43.553Z,27.8
2023-06-05T12:27:43.603Z,29.4
2023-06-05T12:47:43.549Z,30.8
2023-06-05T13:07:44.932Z,27
2023-06-05T13:27:43.690Z,27.2
2023-06-05T13:47:43.671Z,30.6
2023-06-05T14:07:49.325Z,28.9
2023-06-05T14:27:43.863Z,30.4
2023-06-05T14:47:44.208Z,33.4
2023-06-05T15:07:43.973Z,34.5
2023-06-05T15:27:44.372Z,35.9
2023-06-05T15:47:43.849Z,38.3
2023-06-05T16:07:43.874Z,38
2023-06-05T16:27:43.864Z,38.3
2023-06-05T16:47:43.951Z,38.4
2023-06-05T17:07:44.574Z,36.8
2023-06-05T17:27:43.959Z,39.2
2023-06-05T17:47:44.099Z,40.2
2023-06-05T18:07:43.975Z,43.4
2023-06-05T18:27:43.960Z,53.5
2023-06-05T18:47:44.023Z,54.1
2023-06-05T19:07:44.005Z,57.6
2023-06-05T19:27:44.103Z,62.5
2023-06-05T19:47:44.220Z,59.2
2023-06-05T20:07:44.219Z,55.1
2023-06-05T20:27:44.086Z,56.7
2023-06-05T20:47:44.314Z,57.7
2023-06-05T21:07:44.155Z,57
2023-06-05T21:27:44.442Z,57.8
2023-06-05T21:47:44.336Z,61.4
2023-06-05T22:07:44.316Z,64
2023-06-05T22:27:44.561Z,66.7
2023-06-05T22:47:44.430Z,68.6
2023-06-05T23:07:44.362Z,69.8
2023-06-05T23:27:44.395Z,71.6
2023-06-05T23:47:44.492Z,73.3
